sensor_id;sensor_type;location;lat;lon;timestamp;P1;durP1;ratioP1;P2;durP2;ratioP2
11731;SDS011;5922;53.734;10.258;2023-03-21T00:01:06;17.63;;;15.83;;
11731;SDS011;5922;53.734;10.258;2023-03-21T00:03:39;17.30;;;14.60;;
11731;SDS011;5922;53.734;10.258;2023-03-21T00:06:09;18.83;;;15.07;;
11731;SDS011;5922;53.734;10.258;2023-03-21T00:08:42;16.93;;;15.13;;
11731;SDS011;5922;53.734;10.258;2023-03-21T00:11:23;17.20;;;15.50;;
11731;SDS011;5922;53.734;10.258;2023-03-21T00:14:00;18.40;;;16.50;;
11731;SDS011;5922;53.734;10.258;2023-03-21T00:16:46;17.60;;;15.80;;
11731;SDS011;5922;53.734;10.258;2023-03-21T00:19:17;18.53;;;16.50;;
11731;SDS011;5922;53.734;10.258;2023-03-21T00:21:49;17.40;;;15.60;;
11731;SDS011;5922;53.734;10.258;2023-03-21T00:24:19;20.27;;;17.53;;
11731;SDS011;5922;53.734;10.258;2023-03-21T00:26:50;19.40;;;17.30;;
11731;SDS011;5922;53.734;10.258;2023-03-21T00:29:33;17.60;;;15.70;;
11731;SDS011;5922;53.734;10.258;2023-03-21T00:32:10;18.63;;;16.70;;
11731;SDS011;5922;53.734;10.258;2023-03-21T00:34:58;18.20;;;16.30;;
11731;SDS011;5922;53.734;10.258;2023-03-21T00:37:32;17.80;;;15.90;;
11731;SDS011;5922;53.734;10.258;2023-03-21T00:40:26;20.23;;;15.93;;
11731;SDS011;5922;53.734;10.258;2023-03-21T00:43:01;18.03;;;16.13;;
11731;SDS011;5922;53.734;10.258;2023-03-21T00:45:36;16.90;;;15.23;;
11731;SDS011;5922;53.734;10.258;2023-03-21T00:48:14;17.90;;;15.57;;
11731;SDS011;5922;53.734;10.258;2023-03-21T00:50:43;17.67;;;15.73;;
11731;SDS011;5922;53.734;10.258;2023-03-21T00:53:19;18.37;;;16.47;;
11731;SDS011;5922;53.734;10.258;2023-03-21T00:55:56;18.63;;;16.63;;
11731;SDS011;5922;53.734;10.258;2023-03-21T00:58:32;18.20;;;15.77;;
11731;SDS011;5922;53.734;10.258;2023-03-21T01:01:05;17.50;;;15.70;;
11731;SDS011;5922;53.734;10.258;2023-03-21T01:03:38;17.57;;;15.67;;
11731;SDS011;5922;53.734;10.258;2023-03-21T01:06:27;19.30;;;16.97;;
11731;SDS011;5922;53.734;10.258;2023-03-21T01:08:57;18.60;;;16.70;;
11731;SDS011;5922;53.734;10.258;2023-03-21T01:11:36;18.67;;;16.70;;
11731;SDS011;5922;53.734;10.258;2023-03-21T01:14:09;18.40;;;16.50;;
11731;SDS011;5922;53.734;10.258;2023-03-21T01:16:51;18.47;;;16.67;;
11731;SDS011;5922;53.734;10.258;2023-03-21T01:19:24;19.40;;;17.40;;
11731;SDS011;5922;53.734;10.258;2023-03-21T01:21:54;17.97;;;16.07;;
11731;SDS011;5922;53.734;10.258;2023-03-21T01:24:22;19.17;;;17.07;;
11731;SDS011;5922;53.734;10.258;2023-03-21T01:26:53;19.20;;;17.20;;
11731;SDS011;5922;53.734;10.258;2023-03-21T01:29:27;21.47;;;17.10;;
11731;SDS011;5922;53.734;10.258;2023-03-21T01:32:07;19.20;;;17.30;;
11731;SDS011;5922;53.734;10.258;2023-03-21T01:34:41;18.77;;;16.87;;
11731;SDS011;5922;53.734;10.258;2023-03-21T01:37:14;19.40;;;17.33;;
11731;SDS011;5922;53.734;10.258;2023-03-21T01:39:47;20.87;;;17.90;;
11731;SDS011;5922;53.734;10.258;2023-03-21T01:42:26;19.50;;;17.43;;
11731;SDS011;5922;53.734;10.258;2023-03-21T01:45:04;19.80;;;17.80;;
11731;SDS011;5922;53.734;10.258;2023-03-21T01:47:48;20.37;;;17.87;;
11731;SDS011;5922;53.734;10.258;2023-03-21T01:50:27;19.73;;;17.63;;
11731;SDS011;5922;53.734;10.258;2023-03-21T01:52:57;20.67;;;18.20;;
11731;SDS011;5922;53.734;10.258;2023-03-21T01:55:29;20.87;;;18.70;;
11731;SDS011;5922;53.734;10.258;2023-03-21T01:58:02;20.37;;;18.03;;
11731;SDS011;5922;53.734;10.258;2023-03-21T02:00:30;21.87;;;19.67;;
11731;SDS011;5922;53.734;10.258;2023-03-21T02:03:01;21.90;;;19.13;;
11731;SDS011;5922;53.734;10.258;2023-03-21T02:05:43;21.40;;;19.13;;
11731;SDS011;5922;53.734;10.258;2023-03-21T02:08:23;22.30;;;19.90;;
11731;SDS011;5922;53.734;10.258;2023-03-21T02:11:10;21.57;;;18.63;;
11731;SDS011;5922;53.734;10.258;2023-03-21T02:13:55;20.83;;;18.73;;
11731;SDS011;5922;53.734;10.258;2023-03-21T02:16:36;21.10;;;18.80;;
11731;SDS011;5922;53.734;10.258;2023-03-21T02:19:13;23.17;;;19.57;;
11731;SDS011;5922;53.734;10.258;2023-03-21T02:27:35;21.63;;;19.33;;
11731;SDS011;5922;53.734;10.258;2023-03-21T02:30:18;22.20;;;19.90;;
11731;SDS011;5922;53.734;10.258;2023-03-21T02:33:10;21.70;;;19.50;;
11731;SDS011;5922;53.734;10.258;2023-03-21T02:36:00;22.03;;;19.70;;
11731;SDS011;5922;53.734;10.258;2023-03-21T02:38:35;23.07;;;20.07;;
11731;SDS011;5922;53.734;10.258;2023-03-21T02:41:24;22.97;;;19.83;;
11731;SDS011;5922;53.734;10.258;2023-03-21T02:44:00;22.57;;;20.20;;
11731;SDS011;5922;53.734;10.258;2023-03-21T02:46:37;23.00;;;20.53;;
11731;SDS011;5922;53.734;10.258;2023-03-21T02:49:21;23.10;;;20.10;;
11731;SDS011;5922;53.734;10.258;2023-03-21T02:51:59;23.37;;;20.67;;
11731;SDS011;5922;53.734;10.258;2023-03-21T02:54:35;23.67;;;21.17;;
11731;SDS011;5922;53.734;10.258;2023-03-21T02:57:20;27.53;;;22.17;;
11731;SDS011;5922;53.734;10.258;2023-03-21T02:59:53;26.10;;;21.00;;
11731;SDS011;5922;53.734;10.258;2023-03-21T03:02:44;24.20;;;21.70;;
11731;SDS011;5922;53.734;10.258;2023-03-21T03:05:17;27.77;;;22.73;;
11731;SDS011;5922;53.734;10.258;2023-03-21T03:13:10;25.37;;;22.57;;
11731;SDS011;5922;53.734;10.258;2023-03-21T03:15:41;29.33;;;22.73;;
11731;SDS011;5922;53.734;10.258;2023-03-21T03:18:18;26.93;;;22.37;;
11731;SDS011;5922;53.734;10.258;2023-03-21T03:20:51;26.17;;;23.37;;
11731;SDS011;5922;53.734;10.258;2023-03-21T03:23:27;25.13;;;22.00;;
11731;SDS011;5922;53.734;10.258;2023-03-21T03:25:59;24.33;;;21.73;;
11731;SDS011;5922;53.734;10.258;2023-03-21T03:28:30;25.57;;;22.77;;
11731;SDS011;5922;53.734;10.258;2023-03-21T03:31:06;26.60;;;23.67;;
11731;SDS011;5922;53.734;10.258;2023-03-21T03:33:39;27.20;;;23.43;;
11731;SDS011;5922;53.734;10.258;2023-03-21T03:36:12;27.13;;;23.67;;
11731;SDS011;5922;53.734;10.258;2023-03-21T03:38:42;28.70;;;24.07;;
11731;SDS011;5922;53.734;10.258;2023-03-21T03:41:23;28.87;;;24.43;;
11731;SDS011;5922;53.734;10.258;2023-03-21T03:43:59;28.03;;;23.97;;
11731;SDS011;5922;53.734;10.258;2023-03-21T03:46:34;28.10;;;24.53;;
11731;SDS011;5922;53.734;10.258;2023-03-21T03:49:08;26.37;;;23.50;;
11731;SDS011;5922;53.734;10.258;2023-03-21T03:51:42;28.67;;;24.87;;
11731;SDS011;5922;53.734;10.258;2023-03-21T03:54:14;26.77;;;23.80;;
11731;SDS011;5922;53.734;10.258;2023-03-21T03:56:51;29.30;;;25.13;;
11731;SDS011;5922;53.734;10.258;2023-03-21T03:59:27;27.43;;;24.43;;
11731;SDS011;5922;53.734;10.258;2023-03-21T04:02:06;25.50;;;22.67;;
11731;SDS011;5922;53.734;10.258;2023-03-21T04:04:46;28.07;;;23.93;;
11731;SDS011;5922;53.734;10.258;2023-03-21T04:07:17;25.27;;;22.30;;
11731;SDS011;5922;53.734;10.258;2023-03-21T04:09:45;26.13;;;22.47;;
11731;SDS011;5922;53.734;10.258;2023-03-21T04:12:22;26.40;;;23.17;;
11731;SDS011;5922;53.734;10.258;2023-03-21T04:14:59;26.77;;;22.90;;
11731;SDS011;5922;53.734;10.258;2023-03-21T04:17:33;25.17;;;22.27;;
11731;SDS011;5922;53.734;10.258;2023-03-21T04:20:03;26.63;;;23.23;;
11731;SDS011;5922;53.734;10.258;2023-03-21T04:22:36;28.30;;;23.13;;
11731;SDS011;5922;53.734;10.258;2023-03-21T04:25:03;28.50;;;24.40;;
11731;SDS011;5922;53.734;10.258;2023-03-21T04:27:31;26.47;;;22.20;;
11731;SDS011;5922;53.734;10.258;2023-03-21T04:30:00;27.00;;;23.83;;
11731;SDS011;5922;53.734;10.258;2023-03-21T04:32:27;26.73;;;23.27;;
11731;SDS011;5922;53.734;10.258;2023-03-21T04:35:03;27.77;;;23.63;;
11731;SDS011;5922;53.734;10.258;2023-03-21T04:37:32;27.83;;;24.17;;
11731;SDS011;5922;53.734;10.258;2023-03-21T04:40:00;28.50;;;23.60;;
11731;SDS011;5922;53.734;10.258;2023-03-21T04:42:41;30.10;;;26.00;;
11731;SDS011;5922;53.734;10.258;2023-03-21T04:45:12;32.43;;;26.37;;
11731;SDS011;5922;53.734;10.258;2023-03-21T04:47:40;35.17;;;26.90;;
11731;SDS011;5922;53.734;10.258;2023-03-21T04:50:07;33.40;;;25.93;;
11731;SDS011;5922;53.734;10.258;2023-03-21T04:52:35;33.07;;;27.27;;
11731;SDS011;5922;53.734;10.258;2023-03-21T04:55:02;33.30;;;26.60;;
11731;SDS011;5922;53.734;10.258;2023-03-21T04:57:34;33.90;;;27.47;;
11731;SDS011;5922;53.734;10.258;2023-03-21T05:00:01;31.93;;;26.97;;
11731;SDS011;5922;53.734;10.258;2023-03-21T05:02:36;35.03;;;27.67;;
11731;SDS011;5922;53.734;10.258;2023-03-21T05:05:03;33.37;;;25.87;;
11731;SDS011;5922;53.734;10.258;2023-03-21T05:07:31;31.83;;;25.97;;
11731;SDS011;5922;53.734;10.258;2023-03-21T05:09:58;31.67;;;25.93;;
11731;SDS011;5922;53.734;10.258;2023-03-21T05:12:25;30.90;;;25.53;;
11731;SDS011;5922;53.734;10.258;2023-03-21T05:14:55;32.17;;;26.50;;
11731;SDS011;5922;53.734;10.258;2023-03-21T05:17:22;36.00;;;28.53;;
11731;SDS011;5922;53.734;10.258;2023-03-21T05:19:53;34.37;;;26.70;;
11731;SDS011;5922;53.734;10.258;2023-03-21T05:22:21;34.60;;;26.93;;
11731;SDS011;5922;53.734;10.258;2023-03-21T05:24:53;37.90;;;27.40;;
11731;SDS011;5922;53.734;10.258;2023-03-21T05:27:20;35.10;;;28.30;;
11731;SDS011;5922;53.734;10.258;2023-03-21T05:29:59;36.47;;;28.57;;
11731;SDS011;5922;53.734;10.258;2023-03-21T05:32:27;37.27;;;28.77;;
11731;SDS011;5922;53.734;10.258;2023-03-21T05:34:58;37.50;;;28.73;;
11731;SDS011;5922;53.734;10.258;2023-03-21T05:37:30;38.17;;;28.90;;
11731;SDS011;5922;53.734;10.258;2023-03-21T05:39:58;39.83;;;29.27;;
11731;SDS011;5922;53.734;10.258;2023-03-21T05:45:02;37.67;;;28.73;;
11731;SDS011;5922;53.734;10.258;2023-03-21T05:47:32;39.13;;;30.07;;
11731;SDS011;5922;53.734;10.258;2023-03-21T05:50:00;40.23;;;29.77;;
11731;SDS011;5922;53.734;10.258;2023-03-21T05:52:28;37.50;;;28.60;;
11731;SDS011;5922;53.734;10.258;2023-03-21T05:55:00;41.10;;;31.10;;
11731;SDS011;5922;53.734;10.258;2023-03-21T05:57:31;38.77;;;29.93;;
11731;SDS011;5922;53.734;10.258;2023-03-21T06:00:03;36.10;;;28.03;;
11731;SDS011;5922;53.734;10.258;2023-03-21T06:02:33;35.73;;;28.27;;
11731;SDS011;5922;53.734;10.258;2023-03-21T06:05:05;36.57;;;27.93;;
11731;SDS011;5922;53.734;10.258;2023-03-21T06:07:35;38.07;;;29.50;;
11731;SDS011;5922;53.734;10.258;2023-03-21T06:10:05;35.77;;;28.00;;
11731;SDS011;5922;53.734;10.258;2023-03-21T06:12:32;36.23;;;28.03;;
11731;SDS011;5922;53.734;10.258;2023-03-21T06:15:00;34.43;;;25.37;;
11731;SDS011;5922;53.734;10.258;2023-03-21T06:17:36;33.87;;;25.87;;
11731;SDS011;5922;53.734;10.258;2023-03-21T06:20:12;33.80;;;26.83;;
11731;SDS011;5922;53.734;10.258;2023-03-21T06:22:42;34.40;;;27.03;;
11731;SDS011;5922;53.734;10.258;2023-03-21T06:25:10;33.70;;;26.23;;
11731;SDS011;5922;53.734;10.258;2023-03-21T06:27:38;39.47;;;28.27;;
11731;SDS011;5922;53.734;10.258;2023-03-21T06:30:06;34.33;;;26.77;;
11731;SDS011;5922;53.734;10.258;2023-03-21T06:32:38;34.33;;;27.03;;
11731;SDS011;5922;53.734;10.258;2023-03-21T06:35:10;36.13;;;28.00;;
11731;SDS011;5922;53.734;10.258;2023-03-21T06:37:40;36.37;;;26.47;;
11731;SDS011;5922;53.734;10.258;2023-03-21T06:40:15;37.63;;;26.37;;
11731;SDS011;5922;53.734;10.258;2023-03-21T06:42:43;32.03;;;25.90;;
11731;SDS011;5922;53.734;10.258;2023-03-21T06:45:12;32.60;;;25.70;;
11731;SDS011;5922;53.734;10.258;2023-03-21T06:47:40;35.20;;;25.83;;
11731;SDS011;5922;53.734;10.258;2023-03-21T06:50:07;31.10;;;24.00;;
11731;SDS011;5922;53.734;10.258;2023-03-21T06:52:36;31.00;;;24.77;;
11731;SDS011;5922;53.734;10.258;2023-03-21T06:55:04;31.17;;;24.73;;
11731;SDS011;5922;53.734;10.258;2023-03-21T06:57:31;26.70;;;21.57;;
11731;SDS011;5922;53.734;10.258;2023-03-21T06:59:58;28.03;;;22.77;;
11731;SDS011;5922;53.734;10.258;2023-03-21T07:02:25;25.50;;;21.80;;
11731;SDS011;5922;53.734;10.258;2023-03-21T07:04:53;26.67;;;22.00;;
11731;SDS011;5922;53.734;10.258;2023-03-21T07:07:23;24.20;;;20.67;;
11731;SDS011;5922;53.734;10.258;2023-03-21T07:09:55;21.07;;;18.73;;
11731;SDS011;5922;53.734;10.258;2023-03-21T07:12:22;25.63;;;20.53;;
11731;SDS011;5922;53.734;10.258;2023-03-21T07:14:52;23.57;;;18.87;;
11731;SDS011;5922;53.734;10.258;2023-03-21T07:17:19;24.57;;;20.77;;
11731;SDS011;5922;53.734;10.258;2023-03-21T07:19:46;21.47;;;19.03;;
11731;SDS011;5922;53.734;10.258;2023-03-21T07:22:13;22.90;;;19.20;;
11731;SDS011;5922;53.734;10.258;2023-03-21T07:24:41;22.73;;;19.00;;
11731;SDS011;5922;53.734;10.258;2023-03-21T07:27:13;19.87;;;17.77;;
11731;SDS011;5922;53.734;10.258;2023-03-21T07:29:41;19.67;;;17.57;;
11731;SDS011;5922;53.734;10.258;2023-03-21T07:32:09;22.57;;;17.87;;
11731;SDS011;5922;53.734;10.258;2023-03-21T07:34:36;20.13;;;17.53;;
11731;SDS011;5922;53.734;10.258;2023-03-21T07:37:03;20.40;;;17.77;;
11731;SDS011;5922;53.734;10.258;2023-03-21T07:39:31;19.30;;;16.67;;
11731;SDS011;5922;53.734;10.258;2023-03-21T07:41:59;19.97;;;17.80;;
11731;SDS011;5922;53.734;10.258;2023-03-21T07:44:28;20.23;;;17.83;;
11731;SDS011;5922;53.734;10.258;2023-03-21T07:46:58;19.00;;;16.63;;
11731;SDS011;5922;53.734;10.258;2023-03-21T07:49:26;20.60;;;17.13;;
11731;SDS011;5922;53.734;10.258;2023-03-21T07:51:53;20.13;;;17.33;;
11731;SDS011;5922;53.734;10.258;2023-03-21T07:54:23;19.37;;;16.57;;
11731;SDS011;5922;53.734;10.258;2023-03-21T07:56:52;20.03;;;17.03;;
11731;SDS011;5922;53.734;10.258;2023-03-21T07:59:20;21.40;;;17.73;;
11731;SDS011;5922;53.734;10.258;2023-03-21T08:01:48;21.17;;;17.73;;
11731;SDS011;5922;53.734;10.258;2023-03-21T08:04:18;21.40;;;18.30;;
11731;SDS011;5922;53.734;10.258;2023-03-21T08:06:46;21.73;;;18.43;;
11731;SDS011;5922;53.734;10.258;2023-03-21T08:09:14;24.00;;;18.77;;
11731;SDS011;5922;53.734;10.258;2023-03-21T08:11:41;25.20;;;20.27;;
11731;SDS011;5922;53.734;10.258;2023-03-21T08:14:11;26.47;;;21.00;;
11731;SDS011;5922;53.734;10.258;2023-03-21T08:16:38;27.27;;;20.80;;
11731;SDS011;5922;53.734;10.258;2023-03-21T08:19:07;26.90;;;21.33;;
11731;SDS011;5922;53.734;10.258;2023-03-21T08:21:36;29.17;;;21.67;;
11731;SDS011;5922;53.734;10.258;2023-03-21T08:24:04;27.63;;;22.43;;
11731;SDS011;5922;53.734;10.258;2023-03-21T08:26:34;24.97;;;21.17;;
11731;SDS011;5922;53.734;10.258;2023-03-21T08:29:03;26.23;;;20.53;;
11731;SDS011;5922;53.734;10.258;2023-03-21T08:31:30;30.27;;;23.20;;
11731;SDS011;5922;53.734;10.258;2023-03-21T08:33:58;29.53;;;22.93;;
11731;SDS011;5922;53.734;10.258;2023-03-21T08:36:27;27.10;;;22.10;;
11731;SDS011;5922;53.734;10.258;2023-03-21T08:38:56;26.97;;;21.73;;
11731;SDS011;5922;53.734;10.258;2023-03-21T08:41:29;27.53;;;20.80;;
11731;SDS011;5922;53.734;10.258;2023-03-21T08:43:57;26.73;;;23.13;;
11731;SDS011;5922;53.734;10.258;2023-03-21T08:46:24;26.87;;;21.20;;
11731;SDS011;5922;53.734;10.258;2023-03-21T08:48:53;24.83;;;20.97;;
11731;SDS011;5922;53.734;10.258;2023-03-21T08:51:21;22.43;;;19.07;;
11731;SDS011;5922;53.734;10.258;2023-03-21T08:53:49;23.93;;;18.63;;
11731;SDS011;5922;53.734;10.258;2023-03-21T08:56:19;21.83;;;18.57;;
11731;SDS011;5922;53.734;10.258;2023-03-21T08:58:46;23.03;;;18.63;;
11731;SDS011;5922;53.734;10.258;2023-03-21T09:01:13;19.70;;;17.60;;
11731;SDS011;5922;53.734;10.258;2023-03-21T09:03:43;18.93;;;16.70;;
11731;SDS011;5922;53.734;10.258;2023-03-21T09:06:10;20.97;;;17.30;;
11731;SDS011;5922;53.734;10.258;2023-03-21T09:08:38;21.57;;;18.00;;
11731;SDS011;5922;53.734;10.258;2023-03-21T09:11:12;22.17;;;18.57;;
11731;SDS011;5922;53.734;10.258;2023-03-21T09:13:40;19.50;;;16.67;;
11731;SDS011;5922;53.734;10.258;2023-03-21T09:16:09;20.20;;;17.77;;
11731;SDS011;5922;53.734;10.258;2023-03-21T09:18:36;20.20;;;17.50;;
11731;SDS011;5922;53.734;10.258;2023-03-21T09:21:11;23.13;;;19.00;;
11731;SDS011;5922;53.734;10.258;2023-03-21T09:23:38;22.37;;;18.90;;
11731;SDS011;5922;53.734;10.258;2023-03-21T09:26:06;22.80;;;18.77;;
11731;SDS011;5922;53.734;10.258;2023-03-21T09:28:35;23.17;;;19.10;;
11731;SDS011;5922;53.734;10.258;2023-03-21T09:31:05;22.07;;;18.43;;
11731;SDS011;5922;53.734;10.258;2023-03-21T09:33:36;24.40;;;19.97;;
11731;SDS011;5922;53.734;10.258;2023-03-21T09:36:04;21.63;;;18.60;;
11731;SDS011;5922;53.734;10.258;2023-03-21T09:38:35;24.87;;;20.00;;
11731;SDS011;5922;53.734;10.258;2023-03-21T09:41:10;29.07;;;21.60;;
11731;SDS011;5922;53.734;10.258;2023-03-21T09:43:48;24.97;;;20.37;;
11731;SDS011;5922;53.734;10.258;2023-03-21T09:46:21;26.90;;;21.90;;
11731;SDS011;5922;53.734;10.258;2023-03-21T09:48:54;24.10;;;20.97;;
11731;SDS011;5922;53.734;10.258;2023-03-21T09:51:30;22.30;;;19.53;;
11731;SDS011;5922;53.734;10.258;2023-03-21T09:54:00;22.87;;;18.27;;
11731;SDS011;5922;53.734;10.258;2023-03-21T09:56:29;21.93;;;19.13;;
11731;SDS011;5922;53.734;10.258;2023-03-21T09:58:58;26.23;;;20.10;;
11731;SDS011;5922;53.734;10.258;2023-03-21T10:01:31;24.77;;;20.53;;
11731;SDS011;5922;53.734;10.258;2023-03-21T10:04:06;27.27;;;20.53;;
11731;SDS011;5922;53.734;10.258;2023-03-21T10:06:34;26.00;;;21.17;;
11731;SDS011;5922;53.734;10.258;2023-03-21T10:09:05;26.63;;;22.43;;
11731;SDS011;5922;53.734;10.258;2023-03-21T10:11:36;29.43;;;22.90;;
11731;SDS011;5922;53.734;10.258;2023-03-21T10:14:11;30.53;;;23.10;;
11731;SDS011;5922;53.734;10.258;2023-03-21T10:16:41;30.57;;;24.20;;
11731;SDS011;5922;53.734;10.258;2023-03-21T10:19:10;30.73;;;22.47;;
11731;SDS011;5922;53.734;10.258;2023-03-21T10:21:38;27.60;;;21.57;;
11731;SDS011;5922;53.734;10.258;2023-03-21T10:24:10;29.73;;;23.77;;
11731;SDS011;5922;53.734;10.258;2023-03-21T10:26:43;29.87;;;23.53;;
11731;SDS011;5922;53.734;10.258;2023-03-21T10:29:14;30.33;;;23.67;;
11731;SDS011;5922;53.734;10.258;2023-03-21T10:31:42;29.63;;;22.20;;
11731;SDS011;5922;53.734;10.258;2023-03-21T10:34:12;28.77;;;22.97;;
11731;SDS011;5922;53.734;10.258;2023-03-21T10:36:42;28.43;;;22.30;;
11731;SDS011;5922;53.734;10.258;2023-03-21T10:39:15;25.40;;;20.97;;
11731;SDS011;5922;53.734;10.258;2023-03-21T10:41:46;26.10;;;21.57;;
11731;SDS011;5922;53.734;10.258;2023-03-21T10:44:15;24.77;;;20.33;;
11731;SDS011;5922;53.734;10.258;2023-03-21T10:46:48;26.97;;;21.43;;
11731;SDS011;5922;53.734;10.258;2023-03-21T10:49:16;26.40;;;21.20;;
11731;SDS011;5922;53.734;10.258;2023-03-21T10:51:47;23.47;;;20.43;;
11731;SDS011;5922;53.734;10.258;2023-03-21T10:54:18;23.27;;;19.07;;
11731;SDS011;5922;53.734;10.258;2023-03-21T10:56:48;25.57;;;20.07;;
11731;SDS011;5922;53.734;10.258;2023-03-21T10:59:19;25.20;;;19.97;;
11731;SDS011;5922;53.734;10.258;2023-03-21T11:01:47;23.60;;;20.83;;
11731;SDS011;5922;53.734;10.258;2023-03-21T11:04:21;25.10;;;21.90;;
11731;SDS011;5922;53.734;10.258;2023-03-21T11:06:56;25.73;;;21.17;;
11731;SDS011;5922;53.734;10.258;2023-03-21T11:09:41;23.13;;;20.57;;
11731;SDS011;5922;53.734;10.258;2023-03-21T11:12:09;25.97;;;20.50;;
11731;SDS011;5922;53.734;10.258;2023-03-21T11:14:40;24.00;;;21.00;;
11731;SDS011;5922;53.734;10.258;2023-03-21T11:17:20;25.70;;;21.53;;
11731;SDS011;5922;53.734;10.258;2023-03-21T11:19:51;27.67;;;22.23;;
11731;SDS011;5922;53.734;10.258;2023-03-21T11:22:19;26.17;;;22.30;;
11731;SDS011;5922;53.734;10.258;2023-03-21T11:24:50;27.27;;;20.50;;
11731;SDS011;5922;53.734;10.258;2023-03-21T11:27:18;23.33;;;20.23;;
11731;SDS011;5922;53.734;10.258;2023-03-21T11:29:49;24.07;;;20.20;;
11731;SDS011;5922;53.734;10.258;2023-03-21T11:32:21;23.50;;;19.50;;
11731;SDS011;5922;53.734;10.258;2023-03-21T11:34:48;21.27;;;18.50;;
11731;SDS011;5922;53.734;10.258;2023-03-21T11:37:18;19.20;;;16.90;;
11731;SDS011;5922;53.734;10.258;2023-03-21T11:39:48;18.67;;;16.57;;
11731;SDS011;5922;53.734;10.258;2023-03-21T11:42:26;20.87;;;16.17;;
11731;SDS011;5922;53.734;10.258;2023-03-21T11:45:04;19.13;;;15.73;;
11731;SDS011;5922;53.734;10.258;2023-03-21T11:47:36;17.87;;;15.20;;
11731;SDS011;5922;53.734;10.258;2023-03-21T11:50:18;19.03;;;15.30;;
11731;SDS011;5922;53.734;10.258;2023-03-21T11:52:52;18.73;;;15.60;;
11731;SDS011;5922;53.734;10.258;2023-03-21T11:55:29;19.30;;;16.07;;
11731;SDS011;5922;53.734;10.258;2023-03-21T11:58:02;17.73;;;15.00;;
11731;SDS011;5922;53.734;10.258;2023-03-21T12:00:33;18.07;;;14.97;;
11731;SDS011;5922;53.734;10.258;2023-03-21T12:03:10;17.13;;;15.30;;
11731;SDS011;5922;53.734;10.258;2023-03-21T12:05:41;15.77;;;14.13;;
11731;SDS011;5922;53.734;10.258;2023-03-21T12:08:16;16.00;;;14.30;;
11731;SDS011;5922;53.734;10.258;2023-03-21T12:10:52;16.17;;;14.50;;
11731;SDS011;5922;53.734;10.258;2023-03-21T12:13:26;15.53;;;13.80;;
11731;SDS011;5922;53.734;10.258;2023-03-21T12:16:00;16.37;;;14.20;;
11731;SDS011;5922;53.734;10.258;2023-03-21T12:18:33;17.10;;;15.30;;
11731;SDS011;5922;53.734;10.258;2023-03-21T12:21:02;19.33;;;15.63;;
11731;SDS011;5922;53.734;10.258;2023-03-21T12:23:37;17.47;;;15.53;;
11731;SDS011;5922;53.734;10.258;2023-03-21T12:26:13;16.43;;;14.67;;
11731;SDS011;5922;53.734;10.258;2023-03-21T12:28:59;19.10;;;15.80;;
11731;SDS011;5922;53.734;10.258;2023-03-21T12:31:31;17.13;;;15.33;;
11731;SDS011;5922;53.734;10.258;2023-03-21T12:34:07;17.43;;;15.60;;
11731;SDS011;5922;53.734;10.258;2023-03-21T12:36:55;16.77;;;14.90;;
11731;SDS011;5922;53.734;10.258;2023-03-21T12:39:26;19.70;;;15.43;;
11731;SDS011;5922;53.734;10.258;2023-03-21T12:42:04;19.47;;;16.53;;
11731;SDS011;5922;53.734;10.258;2023-03-21T12:44:37;18.57;;;16.57;;
11731;SDS011;5922;53.734;10.258;2023-03-21T12:47:08;21.30;;;18.87;;
11731;SDS011;5922;53.734;10.258;2023-03-21T12:49:37;23.67;;;18.97;;
11731;SDS011;5922;53.734;10.258;2023-03-21T12:52:06;22.00;;;19.67;;
11731;SDS011;5922;53.734;10.258;2023-03-21T12:54:34;26.80;;;22.93;;
11731;SDS011;5922;53.734;10.258;2023-03-21T12:57:03;28.40;;;23.37;;
11731;SDS011;5922;53.734;10.258;2023-03-21T12:59:33;26.50;;;21.87;;
11731;SDS011;5922;53.734;10.258;2023-03-21T13:02:12;22.93;;;20.13;;
11731;SDS011;5922;53.734;10.258;2023-03-21T13:04:44;25.20;;;21.10;;
11731;SDS011;5922;53.734;10.258;2023-03-21T13:07:13;24.33;;;20.10;;
11731;SDS011;5922;53.734;10.258;2023-03-21T13:09:42;23.30;;;20.43;;
11731;SDS011;5922;53.734;10.258;2023-03-21T13:12:18;26.17;;;21.73;;
11731;SDS011;5922;53.734;10.258;2023-03-21T13:14:49;27.80;;;21.70;;
11731;SDS011;5922;53.734;10.258;2023-03-21T13:17:21;24.60;;;21.70;;
11731;SDS011;5922;53.734;10.258;2023-03-21T13:19:54;26.27;;;21.13;;
11731;SDS011;5922;53.734;10.258;2023-03-21T13:22:25;24.60;;;20.90;;
11731;SDS011;5922;53.734;10.258;2023-03-21T13:24:56;26.00;;;20.50;;
11731;SDS011;5922;53.734;10.258;2023-03-21T13:27:29;25.33;;;20.27;;
11731;SDS011;5922;53.734;10.258;2023-03-21T13:29:59;25.87;;;21.33;;
11731;SDS011;5922;53.734;10.258;2023-03-21T13:32:32;23.27;;;19.87;;
11731;SDS011;5922;53.734;10.258;2023-03-21T13:35:01;22.77;;;19.97;;
11731;SDS011;5922;53.734;10.258;2023-03-21T13:37:33;23.63;;;19.87;;
11731;SDS011;5922;53.734;10.258;2023-03-21T13:40:01;22.10;;;18.07;;
11731;SDS011;5922;53.734;10.258;2023-03-21T13:42:33;20.30;;;17.77;;
11731;SDS011;5922;53.734;10.258;2023-03-21T13:45:00;16.40;;;14.67;;
11731;SDS011;5922;53.734;10.258;2023-03-21T13:47:36;15.67;;;14.07;;
11731;SDS011;5922;53.734;10.258;2023-03-21T13:58:22;13.33;;;11.57;;
11731;SDS011;5922;53.734;10.258;2023-03-21T14:01:10;13.20;;;10.47;;
11731;SDS011;5922;53.734;10.258;2023-03-21T14:03:46;11.57;;;10.00;;
11731;SDS011;5922;53.734;10.258;2023-03-21T14:06:23;10.37;;;8.87;;
11731;SDS011;5922;53.734;10.258;2023-03-21T14:08:52;10.83;;;9.73;;
11731;SDS011;5922;53.734;10.258;2023-03-21T14:11:28;10.13;;;9.13;;
11731;SDS011;5922;53.734;10.258;2023-03-21T14:13:56;10.90;;;9.13;;
11731;SDS011;5922;53.734;10.258;2023-03-21T14:16:24;12.20;;;10.43;;
11731;SDS011;5922;53.734;10.258;2023-03-21T14:18:55;10.77;;;9.57;;
11731;SDS011;5922;53.734;10.258;2023-03-21T14:21:25;10.07;;;9.07;;
11731;SDS011;5922;53.734;10.258;2023-03-21T14:24:11;11.13;;;9.87;;
11731;SDS011;5922;53.734;10.258;2023-03-21T14:26:40;10.60;;;9.50;;
11731;SDS011;5922;53.734;10.258;2023-03-21T14:29:14;9.20;;;8.27;;
11731;SDS011;5922;53.734;10.258;2023-03-21T14:34:40;8.80;;;7.90;;
11731;SDS011;5922;53.734;10.258;2023-03-21T14:37:10;9.30;;;8.20;;
11731;SDS011;5922;53.734;10.258;2023-03-21T14:39:55;8.63;;;7.73;;
11731;SDS011;5922;53.734;10.258;2023-03-21T14:42:23;8.87;;;7.97;;
11731;SDS011;5922;53.734;10.258;2023-03-21T14:44:53;8.83;;;7.93;;
11731;SDS011;5922;53.734;10.258;2023-03-21T14:47:25;9.57;;;8.57;;
11731;SDS011;5922;53.734;10.258;2023-03-21T14:50:10;8.50;;;7.70;;
11731;SDS011;5922;53.734;10.258;2023-03-21T14:52:40;10.40;;;8.10;;
11731;SDS011;5922;53.734;10.258;2023-03-21T14:55:10;8.60;;;7.70;;
11731;SDS011;5922;53.734;10.258;2023-03-21T14:57:39;11.03;;;7.90;;
11731;SDS011;5922;53.734;10.258;2023-03-21T15:00:11;9.17;;;8.20;;
11731;SDS011;5922;53.734;10.258;2023-03-21T15:02:53;9.07;;;8.17;;
11731;SDS011;5922;53.734;10.258;2023-03-21T15:05:23;9.50;;;8.60;;
11731;SDS011;5922;53.734;10.258;2023-03-21T15:08:00;10.70;;;8.57;;
11731;SDS011;5922;53.734;10.258;2023-03-21T15:10:28;10.47;;;8.07;;
11731;SDS011;5922;53.734;10.258;2023-03-21T15:12:57;9.53;;;8.30;;
11731;SDS011;5922;53.734;10.258;2023-03-21T15:15:28;9.43;;;8.53;;
11731;SDS011;5922;53.734;10.258;2023-03-21T15:17:57;10.20;;;8.27;;